Qaarsut

KL  EN  DA
ASIAQ
Weather Now GREENLAND SURVEY
Updated [WGT/WGST] Temperature [°C] Wind [m/s] Air pressure [hPa] Relative humidity [%] Precipitation [mm]
Present Wind chill Speed Max
21.01 21:00-13,5-19,73,0 ⇒5,4987730,0
21.01 20:00-13,7-22,96,1 ⇘7,5987740,0
21.01 19:00-13,7-23,57,1 ⇘8,0987780,1
21.01 18:00-13,4-22,96,7 ⇘8,1986820,0
21.01 17:00-13,0-23,17,8 ⇘9,7986850,1
21.01 16:00-12,3-22,99,1 ⇘10,8986850,1
21.01 15:00-11,7-21,68,1 ⇘10,5985810,0
21.01 14:00-11,3-20,36,8 ⇘10,3984780,0
21.01 13:00-11,4-21,58,6 ⇘10,9984860,1
21.01 12:00-11,2-20,36,9 ⇘9,3983840,0
21.01 11:00-11,3-21,18,2 ⇘9,5983880,2
21.01 10:00-10,5-19,06,3 ⇘8,6982900,5
21.01 09:00-10,3-14,92,3 ⇒3,7981830,1
21.01 08:00-10,4-16,63,5 ⇗3,8981770,1
21.01 07:00-10,7-15,42,3 ⇒2,8980840,2
21.01 06:00-10,6-15,82,7 ⇗3,2980770,0
21.01 05:00-10,50,01,3 ⇑2,0979790,0
21.01 04:00-10,4-17,14,0 ⇘4,9978810,0
21.01 03:00-10,3-18,45,8 ⇘7,1977790,0
21.01 02:00-10,3-19,47,5 ⇘10,4976720,0
21.01 01:00-10,5-20,48,8 ⇘10,8976780,0
21.01 00:00-10,6-21,410,8 ⇘13,9976800,0
20.01 23:00-10,1-20,610,3 ⇘13,0975760,2
20.01 22:00-9,8-20,410,9 ⇘14,5975720,0
20.01 21:00-9,8-20,511,1 ⇘13,2975780,0
Position: (70.73333333,-52.7)

[Back]